Terminal Aerodrome Forecast
Issued by NWS

Home | Current Version | Previous Version | Text Only | Print | Product List | Glossary On
Versions: 1 2 3 4 5 6 7 8 9 10 11 12 13 14 15 16 17 18
171
FTUS46 KMTR 141720
TAFSNS
TAF
KSNS 141720Z 1418/1518 28009KT P6SM SKC
     FM142100 29011G16KT P6SM SKC
     FM150300 29008KT P6SM SKC
     FM150700 VRB03KT P6SM SKC
     FM151100 11006KT 6SM BR SKC=

USA.gov is the U.S. government's official web portal to all federal, state and local government web resources and services.